createdAt,value
2023-04-28T00:01:06.944Z,4.27
2023-04-28T00:03:35.145Z,4.50
2023-04-28T00:06:04.394Z,3.80
2023-04-28T00:08:32.486Z,4.50
2023-04-28T00:11:00.933Z,4.60
2023-04-28T00:13:29.053Z,4.40
2023-04-28T00:15:57.324Z,4.40
2023-04-28T00:18:29.242Z,4.47
2023-04-28T00:20:57.650Z,4.47
2023-04-28T00:23:25.794Z,4.67
2023-04-28T00:25:54.370Z,4.97
2023-04-28T00:28:33.663Z,4.63
2023-04-28T00:31:03.014Z,4.60
2023-04-28T00:33:32.799Z,4.40
2023-04-28T00:36:01.990Z,4.20
2023-04-28T00:38:30.809Z,4.10
2023-04-28T00:40:59.041Z,4.53
2023-04-28T00:43:27.107Z,4.20
2023-04-28T00:45:55.256Z,4.30
2023-04-28T00:48:24.406Z,4.77
2023-04-28T00:50:54.433Z,5.03
2023-04-28T00:53:22.984Z,4.57
2023-04-28T00:55:53.878Z,4.43
2023-04-28T00:58:22.084Z,4.57
2023-04-28T01:00:50.320Z,4.50
2023-04-28T01:03:18.478Z,4.73
2023-04-28T01:05:47.086Z,4.93
2023-04-28T01:08:17.282Z,4.63
2023-04-28T01:10:45.592Z,5.17
2023-04-28T01:13:13.859Z,5.23
2023-04-28T01:15:42.378Z,4.93
2023-04-28T01:18:10.859Z,4.50
2023-04-28T01:20:40.787Z,4.57
2023-04-28T01:23:13.895Z,4.87
2023-04-28T01:25:45.008Z,4.87
2023-04-28T01:28:13.543Z,4.43
2023-04-28T01:30:41.662Z,4.90
2023-04-28T01:33:09.790Z,4.83
2023-04-28T01:35:37.929Z,4.90
2023-04-28T01:38:06.234Z,4.67
2023-04-28T01:40:34.347Z,4.50
2023-04-28T01:43:03.892Z,4.80
2023-04-28T01:45:31.895Z,4.70
2023-04-28T01:48:00.024Z,4.90
2023-04-28T01:50:28.075Z,4.93
2023-04-28T01:52:56.180Z,4.77
2023-04-28T01:55:24.369Z,5.10
2023-04-28T01:57:52.724Z,4.80
2023-04-28T02:00:22.895Z,4.70
2023-04-28T02:02:51.597Z,4.77
2023-04-28T02:05:20.192Z,4.80
2023-04-28T02:07:48.703Z,5.23
2023-04-28T02:10:17.004Z,4.90
2023-04-28T02:12:44.969Z,5.43
2023-04-28T02:15:12.978Z,5.87
2023-04-28T02:17:42.801Z,5.97
2023-04-28T02:20:14.475Z,5.20
2023-04-28T02:22:42.711Z,5.27
2023-04-28T02:25:11.093Z,4.93
2023-04-28T02:27:39.529Z,5.70
2023-04-28T02:30:08.793Z,5.50
2023-04-28T02:32:37.186Z,5.40
2023-04-28T02:35:08.058Z,6.10
2023-04-28T02:37:36.450Z,5.80
2023-04-28T02:40:04.736Z,5.50
2023-04-28T02:42:33.000Z,5.37
2023-04-28T02:45:01.110Z,5.77
2023-04-28T02:47:29.222Z,5.70
2023-04-28T02:49:57.624Z,5.70
2023-04-28T02:52:27.106Z,5.70
2023-04-28T02:54:57.717Z,5.30
2023-04-28T02:57:26.354Z,5.43
2023-04-28T02:59:54.384Z,5.63
2023-04-28T03:02:23.311Z,5.60
2023-04-28T03:04:51.724Z,5.40
2023-04-28T03:07:20.010Z,5.43
2023-04-28T03:09:49.939Z,6.00
2023-04-28T03:12:17.958Z,5.87
2023-04-28T03:14:46.615Z,6.03
2023-04-28T03:17:15.510Z,5.63
2023-04-28T03:19:43.547Z,5.90
2023-04-28T03:22:12.026Z,6.03
2023-04-28T03:24:40.168Z,6.10
2023-04-28T03:27:09.649Z,6.17
2023-04-28T03:29:38.729Z,5.80
2023-04-28T03:32:07.951Z,6.40
2023-04-28T03:34:36.220Z,6.60
2023-04-28T03:37:04.416Z,6.17
2023-04-28T03:39:32.690Z,6.60
2023-04-28T03:42:01.239Z,6.60
2023-04-28T03:44:30.825Z,6.23
2023-04-28T03:46:58.953Z,6.73
2023-04-28T03:49:27.706Z,6.80
2023-04-28T03:51:55.681Z,6.53
2023-04-28T03:54:23.904Z,7.37
2023-04-28T03:56:51.935Z,7.57
2023-04-28T03:59:19.976Z,7.30
2023-04-28T04:01:49.684Z,6.80
2023-04-28T04:04:18.451Z,7.13
2023-04-28T04:06:46.973Z,7.23
2023-04-28T04:09:15.494Z,7.90
2023-04-28T04:11:43.698Z,8.00
2023-04-28T04:14:12.085Z,8.73
2023-04-28T04:16:40.523Z,8.43
2023-04-28T04:19:09.896Z,8.80
2023-04-28T04:21:37.940Z,8.07
2023-04-28T04:24:06.421Z,8.70
2023-04-28T04:26:34.453Z,8.03
2023-04-28T04:29:02.550Z,7.70
2023-04-28T04:31:32.040Z,8.23
2023-04-28T04:34:00.146Z,7.50
2023-04-28T04:36:29.806Z,7.57
2023-04-28T04:38:58.110Z,7.43
2023-04-28T04:41:27.322Z,7.67
2023-04-28T04:43:55.673Z,7.10
2023-04-28T04:46:24.268Z,7.00
2023-04-28T04:48:52.416Z,7.30
2023-04-28T04:51:20.787Z,7.20
2023-04-28T04:53:50.332Z,7.43
2023-04-28T04:56:18.656Z,7.57
2023-04-28T04:58:46.879Z,7.17
2023-04-28T05:01:15.617Z,7.37
2023-04-28T05:03:44.905Z,8.30
2023-04-28T05:06:13.548Z,7.43
2023-04-28T05:08:42.031Z,7.20
2023-04-28T05:11:11.934Z,7.47
2023-04-28T05:13:40.913Z,7.87
2023-04-28T05:16:09.432Z,7.50
2023-04-28T05:18:37.637Z,7.33
2023-04-28T05:21:06.437Z,7.70
2023-04-28T05:23:34.548Z,7.70
2023-04-28T05:26:04.289Z,8.20
2023-04-28T05:28:35.581Z,8.30
2023-04-28T05:31:03.850Z,8.30
2023-04-28T05:33:32.099Z,8.37
2023-04-28T05:36:00.966Z,9.00
2023-04-28T05:38:29.329Z,8.70
2023-04-28T05:40:57.925Z,8.77
2023-04-28T05:43:25.943Z,9.07
2023-04-28T05:45:55.752Z,8.30
2023-04-28T05:48:24.120Z,8.93
2023-04-28T05:50:53.333Z,7.67
2023-04-28T05:53:21.718Z,9.00
2023-04-28T05:55:49.838Z,9.17
2023-04-28T05:58:18.024Z,8.33
2023-04-28T06:00:46.092Z,8.93
2023-04-28T06:03:19.188Z,8.60
2023-04-28T06:05:47.771Z,8.90
2023-04-28T06:08:16.323Z,9.17
2023-04-28T06:10:44.673Z,8.50
2023-04-28T06:13:14.625Z,10.10
2023-04-28T06:15:43.169Z,8.20
2023-04-28T06:18:11.589Z,8.47
2023-04-28T06:20:41.153Z,9.00
2023-04-28T06:23:09.526Z,9.70
2023-04-28T06:25:38.131Z,10.00
2023-04-28T06:28:07.705Z,9.23
2023-04-28T06:30:36.969Z,8.73
2023-04-28T06:33:05.561Z,8.93
2023-04-28T06:35:35.934Z,8.97
2023-04-28T06:38:06.149Z,9.50
2023-04-28T06:40:34.396Z,9.37
2023-04-28T06:43:03.072Z,9.13
2023-04-28T06:45:31.279Z,9.80
2023-04-28T06:47:59.452Z,9.23
2023-04-28T06:50:27.509Z,9.10
2023-04-28T06:52:55.517Z,9.87
2023-04-28T06:55:25.059Z,9.67
2023-04-28T06:57:53.378Z,10.23
2023-04-28T07:00:21.690Z,9.87
2023-04-28T07:02:49.938Z,10.37
2023-04-28T07:05:18.400Z,10.23
2023-04-28T07:07:48.880Z,10.73
2023-04-28T07:10:17.096Z,9.67
2023-04-28T07:12:46.841Z,9.77
2023-04-28T07:15:14.974Z,9.83
2023-04-28T07:17:43.264Z,8.97
2023-04-28T07:20:11.801Z,9.13
2023-04-28T07:22:40.140Z,9.80
2023-04-28T07:25:09.992Z,9.20
2023-04-28T07:27:38.095Z,9.40
2023-04-28T07:30:25.861Z,11.00
2023-04-28T07:32:55.791Z,9.73
2023-04-28T07:35:24.450Z,9.53
2023-04-28T07:37:53.115Z,10.53
2023-04-28T07:40:21.989Z,9.47
2023-04-28T07:42:49.986Z,10.50
2023-04-28T07:45:19.551Z,10.53
2023-04-28T07:47:47.965Z,9.33
2023-04-28T07:50:16.356Z,9.57
2023-04-28T07:52:44.786Z,10.00
2023-04-28T07:55:13.124Z,10.67
2023-04-28T07:57:42.502Z,10.23
2023-04-28T08:00:12.239Z,10.27
2023-04-28T08:02:42.167Z,10.30
2023-04-28T08:05:11.477Z,10.97
2023-04-28T08:07:40.134Z,10.33
2023-04-28T08:10:10.368Z,11.13
2023-04-28T08:12:38.794Z,10.07
2023-04-28T08:15:07.884Z,10.63
2023-04-28T08:17:36.081Z,11.07
2023-04-28T08:20:12.765Z,10.20
2023-04-28T08:22:40.864Z,10.47
2023-04-28T08:25:10.939Z,10.57
2023-04-28T08:27:40.150Z,10.50
2023-04-28T08:30:11.277Z,11.73
2023-04-28T08:32:39.719Z,10.90
2023-04-28T08:35:11.022Z,10.73
2023-04-28T08:37:39.466Z,11.60
2023-04-28T08:40:11.013Z,10.47
2023-04-28T08:42:39.893Z,11.03
2023-04-28T08:45:09.662Z,10.40
2023-04-28T08:47:39.764Z,10.33
2023-04-28T08:50:12.534Z,10.23
2023-04-28T08:52:41.792Z,9.50
2023-04-28T08:55:13.157Z,9.37
2023-04-28T08:57:45.505Z,9.57
2023-04-28T09:00:14.374Z,9.63
2023-04-28T09:02:43.218Z,9.10
2023-04-28T09:05:14.576Z,9.70
2023-04-28T09:07:42.976Z,9.60
2023-04-28T09:10:19.156Z,10.00
2023-04-28T09:12:48.181Z,10.13
2023-04-28T09:15:34.673Z,9.73
2023-04-28T09:18:04.147Z,10.70
2023-04-28T09:20:35.376Z,9.37
2023-04-28T09:23:17.754Z,11.13
2023-04-28T09:26:02.312Z,9.40
2023-04-28T09:28:30.716Z,9.53
2023-04-28T09:30:59.225Z,10.10
2023-04-28T09:33:27.970Z,9.90
2023-04-28T09:35:57.812Z,9.73
2023-04-28T09:38:26.591Z,9.57
2023-04-28T09:40:58.654Z,9.73
2023-04-28T09:43:28.481Z,9.63
2023-04-28T09:45:57.407Z,10.87
2023-04-28T09:48:31.016Z,10.37
2023-04-28T09:51:01.194Z,10.80
2023-04-28T09:53:30.584Z,12.10
2023-04-28T09:56:00.979Z,11.83
2023-04-28T09:58:30.294Z,11.17
2023-04-28T10:00:59.717Z,11.67
2023-04-28T10:03:30.244Z,11.50
2023-04-28T10:06:00.621Z,11.57
2023-04-28T10:08:29.794Z,12.23
2023-04-28T10:10:58.711Z,12.37
2023-04-28T10:13:27.082Z,11.77
2023-04-28T10:15:58.208Z,12.43
2023-04-28T10:18:27.637Z,12.90
2023-04-28T10:21:03.289Z,12.63
2023-04-28T10:23:53.085Z,12.67
2023-04-28T10:26:22.131Z,13.27
2023-04-28T10:28:51.458Z,13.67
2023-04-28T10:31:22.915Z,14.87
2023-04-28T10:33:51.465Z,13.93
2023-04-28T10:36:52.978Z,14.73
2023-04-28T10:39:23.622Z,14.27
2023-04-28T10:41:51.851Z,14.50
2023-04-28T10:44:45.196Z,13.03
2023-04-28T10:47:15.087Z,14.27
2023-04-28T10:50:11.640Z,14.23
2023-04-28T10:52:54.084Z,13.77
2023-04-28T10:55:33.114Z,13.43
2023-04-28T10:58:34.452Z,14.67
2023-04-28T11:01:28.563Z,15.63
2023-04-28T11:04:03.422Z,14.57
2023-04-28T11:06:34.501Z,14.63
2023-04-28T11:09:05.634Z,15.07
2023-04-28T11:11:35.204Z,15.20
2023-04-28T11:14:35.205Z,15.43
2023-04-28T11:17:05.506Z,14.97
2023-04-28T11:19:36.040Z,15.73
2023-04-28T11:22:10.081Z,16.27
2023-04-28T11:24:39.759Z,17.43
2023-04-28T11:27:08.629Z,17.17
2023-04-28T11:29:38.536Z,15.93
2023-04-28T11:32:08.182Z,16.20
2023-04-28T11:34:37.121Z,16.50
2023-04-28T11:37:07.290Z,16.30
2023-04-28T11:39:36.362Z,16.30
2023-04-28T11:42:12.580Z,16.43
2023-04-28T11:44:40.812Z,15.83
2023-04-28T11:47:09.367Z,16.33
2023-04-28T11:49:45.332Z,16.17
2023-04-28T11:52:14.208Z,16.13
2023-04-28T11:54:43.781Z,15.60
2023-04-28T11:57:20.653Z,15.50
2023-04-28T11:59:49.854Z,15.60
2023-04-28T12:02:28.232Z,16.47
2023-04-28T12:04:56.627Z,16.67
2023-04-28T12:07:24.744Z,16.63
2023-04-28T12:10:16.063Z,16.77
2023-04-28T12:12:52.525Z,16.33
2023-04-28T12:15:22.935Z,16.70
2023-04-28T12:17:52.009Z,18.30
2023-04-28T12:20:36.800Z,17.27
2023-04-28T12:23:05.543Z,17.63
2023-04-28T12:25:35.527Z,18.10
2023-04-28T12:28:07.853Z,18.87
2023-04-28T12:30:42.751Z,18.87
2023-04-28T12:33:24.175Z,19.47
2023-04-28T12:35:53.877Z,17.97
2023-04-28T12:38:21.955Z,19.77
2023-04-28T12:40:50.376Z,19.27
2023-04-28T12:43:21.351Z,20.40
2023-04-28T12:45:50.154Z,19.77
2023-04-28T12:48:18.653Z,20.10
2023-04-28T12:50:47.507Z,19.10
2023-04-28T12:53:15.744Z,20.20
2023-04-28T12:55:44.145Z,18.90
2023-04-28T12:58:12.583Z,18.50
2023-04-28T13:00:42.149Z,19.30
2023-04-28T13:03:10.265Z,20.10
2023-04-28T13:05:38.771Z,22.00
2023-04-28T13:08:06.993Z,21.27
2023-04-28T13:10:35.303Z,20.37
2023-04-28T13:13:03.604Z,19.43
2023-04-28T13:15:32.886Z,19.30
2023-04-28T13:18:02.541Z,18.07
2023-04-28T13:20:30.859Z,18.53
2023-04-28T13:22:59.000Z,19.47
2023-04-28T13:25:27.059Z,20.03
2023-04-28T13:27:55.237Z,20.27
2023-04-28T13:30:23.439Z,19.77
2023-04-28T13:32:52.186Z,21.03
2023-04-28T13:35:22.416Z,21.47
2023-04-28T13:37:50.519Z,23.40
2023-04-28T13:40:19.272Z,24.33
2023-04-28T13:42:47.687Z,24.07
2023-04-28T13:45:17.744Z,23.47
2023-04-28T13:47:46.196Z,23.23
2023-04-28T13:50:14.154Z,23.37
2023-04-28T13:52:43.976Z,20.67
2023-04-28T13:55:12.390Z,20.37
2023-04-28T13:57:42.082Z,20.93
2023-04-28T14:00:11.585Z,21.60
2023-04-28T14:02:40.417Z,20.17
2023-04-28T14:05:09.519Z,20.83
2023-04-28T14:07:39.548Z,22.40
2023-04-28T14:10:11.199Z,21.60
2023-04-28T14:12:40.019Z,20.53
2023-04-28T14:15:09.060Z,21.20
2023-04-28T14:17:39.729Z,20.50
2023-04-28T14:20:11.734Z,20.80
2023-04-28T14:22:40.146Z,20.17
2023-04-28T14:25:11.610Z,19.70
2023-04-28T14:27:40.074Z,19.23
2023-04-28T14:30:09.842Z,19.07
2023-04-28T14:32:40.397Z,19.73
2023-04-28T14:35:09.536Z,19.50
2023-04-28T14:37:38.100Z,20.80
2023-04-28T14:40:08.002Z,21.33
2023-04-28T14:42:38.428Z,20.27
2023-04-28T14:45:09.193Z,20.10
2023-04-28T14:47:38.861Z,21.67
2023-04-28T14:50:08.256Z,22.47
2023-04-28T14:52:37.244Z,23.37
2023-04-28T14:55:06.592Z,21.37
2023-04-28T14:57:35.789Z,21.67
2023-04-28T15:00:07.389Z,20.13
2023-04-28T15:02:35.942Z,19.57
2023-04-28T15:05:04.854Z,20.70
2023-04-28T15:07:34.649Z,19.60
2023-04-28T15:10:03.039Z,18.47
2023-04-28T15:12:32.152Z,18.87
2023-04-28T15:15:00.669Z,19.67
2023-04-28T15:17:30.398Z,18.23
2023-04-28T15:19:58.765Z,16.60
2023-04-28T15:22:27.126Z,16.93
2023-04-28T15:24:55.967Z,16.87
2023-04-28T15:27:24.165Z,15.93
2023-04-28T15:29:52.454Z,16.07
2023-04-28T15:32:20.819Z,15.07
2023-04-28T15:34:50.634Z,15.60
2023-04-28T15:37:43.117Z,15.27
2023-04-28T15:40:13.151Z,14.30
2023-04-28T15:42:42.355Z,15.27
2023-04-28T15:45:12.197Z,15.00
2023-04-28T15:47:40.770Z,13.90
2023-04-28T15:50:12.516Z,14.33
2023-04-28T15:52:46.015Z,13.00
2023-04-28T15:55:15.299Z,12.37
2023-04-28T15:57:44.770Z,12.67
2023-04-28T16:00:14.965Z,13.20
2023-04-28T16:02:44.033Z,12.50
2023-04-28T16:05:14.297Z,14.13
2023-04-28T16:07:43.125Z,12.53
2023-04-28T16:10:12.595Z,9.77
2023-04-28T16:12:42.018Z,9.70
2023-04-28T16:15:13.007Z,9.27
2023-04-28T16:17:42.616Z,8.67
2023-04-28T16:20:12.441Z,11.13
2023-04-28T16:22:42.878Z,10.30
2023-04-28T16:25:12.339Z,11.40
2023-04-28T16:27:41.857Z,10.53
2023-04-28T16:30:10.945Z,11.03
2023-04-28T16:32:41.092Z,10.63
2023-04-28T16:35:15.168Z,9.97
2023-04-28T16:37:45.512Z,11.53
2023-04-28T16:40:16.041Z,12.83
2023-04-28T16:42:45.642Z,12.67
2023-04-28T16:45:14.354Z,12.57
2023-04-28T16:47:44.089Z,11.30
2023-04-28T16:50:15.973Z,11.27
2023-04-28T16:52:46.267Z,11.73
2023-04-28T16:55:14.839Z,12.23
2023-04-28T16:57:43.133Z,10.93
2023-04-28T17:00:12.550Z,12.87
2023-04-28T17:02:40.829Z,11.13
2023-04-28T17:05:10.085Z,10.53
2023-04-28T17:07:38.074Z,12.97
2023-04-28T17:10:09.136Z,10.23
2023-04-28T17:12:37.417Z,12.30
2023-04-28T17:15:06.969Z,13.20
2023-04-28T17:17:35.299Z,13.63
2023-04-28T17:20:03.597Z,10.57
2023-04-28T17:22:33.287Z,10.27
2023-04-28T17:25:01.637Z,12.10
2023-04-28T17:27:31.224Z,11.83
2023-04-28T17:30:00.498Z,10.03
2023-04-28T17:32:28.780Z,9.93
2023-04-28T17:34:56.841Z,11.30
2023-04-28T17:37:24.874Z,11.50
2023-04-28T17:39:53.399Z,10.60
2023-04-28T17:42:22.015Z,10.90
2023-04-28T17:44:52.164Z,10.97
2023-04-28T17:47:20.517Z,10.00
2023-04-28T17:49:48.838Z,10.90
2023-04-28T17:52:17.102Z,9.90
2023-04-28T17:54:45.222Z,10.50
2023-04-28T17:57:14.596Z,9.73
2023-04-28T17:59:44.806Z,10.17
2023-04-28T18:02:14.798Z,10.70
2023-04-28T18:04:43.470Z,10.13
2023-04-28T18:07:11.942Z,10.17
2023-04-28T18:09:41.988Z,10.20
2023-04-28T18:12:10.554Z,11.07
2023-04-28T18:14:41.471Z,11.53
2023-04-28T18:17:09.845Z,14.27
2023-04-28T18:19:39.858Z,14.33
2023-04-28T18:22:10.923Z,11.83
2023-04-28T18:24:39.896Z,11.60
2023-04-28T18:27:08.147Z,9.80
2023-04-28T18:29:36.820Z,11.57
2023-04-28T18:32:04.962Z,9.90
2023-04-28T18:34:33.192Z,10.23
2023-04-28T18:37:03.161Z,18.67
2023-04-28T18:39:32.041Z,26.33
2023-04-28T18:42:00.491Z,16.10
2023-04-28T18:44:29.209Z,13.83
2023-04-28T18:46:57.682Z,15.03
2023-04-28T18:49:27.165Z,14.33
2023-04-28T18:51:56.083Z,12.57
2023-04-28T18:54:27.481Z,12.60
2023-04-28T18:56:57.621Z,13.13
2023-04-28T18:59:27.332Z,13.10
2023-04-28T19:01:55.679Z,12.00
2023-04-28T19:04:24.406Z,11.97
2023-04-28T19:06:52.488Z,12.63
2023-04-28T19:09:21.093Z,13.23
2023-04-28T19:11:50.690Z,13.57
2023-04-28T19:14:19.799Z,13.73
2023-04-28T19:16:47.945Z,16.17
2023-04-28T19:19:16.412Z,17.80
2023-04-28T19:21:45.521Z,16.97
2023-04-28T19:24:14.143Z,18.97
2023-04-28T19:26:42.366Z,17.10
2023-04-28T19:29:17.327Z,17.13
2023-04-28T19:31:46.060Z,16.97
2023-04-28T19:34:14.418Z,16.97
2023-04-28T19:36:42.805Z,16.53
2023-04-28T19:39:10.875Z,16.43
2023-04-28T19:41:38.974Z,14.50
2023-04-28T19:44:07.329Z,15.07
2023-04-28T19:46:37.298Z,13.73
2023-04-28T19:49:05.482Z,13.97
2023-04-28T19:51:33.483Z,11.50
2023-04-28T19:54:03.147Z,11.60
2023-04-28T19:56:32.974Z,13.30
2023-04-28T19:59:01.807Z,13.13
2023-04-28T20:01:30.301Z,14.23
2023-04-28T20:04:00.681Z,9.10
2023-04-28T20:06:32.035Z,9.33
2023-04-28T20:09:00.496Z,7.00
2023-04-28T20:11:28.847Z,7.27
2023-04-28T20:13:57.473Z,7.70
2023-04-28T20:16:26.688Z,5.70
2023-04-28T20:18:55.135Z,5.07
2023-04-28T20:21:25.124Z,4.67
2023-04-28T20:23:53.490Z,4.63
2023-04-28T20:26:23.035Z,3.93
2023-04-28T20:28:51.886Z,3.43
2023-04-28T20:31:20.116Z,3.60
2023-04-28T20:33:48.323Z,3.57
2023-04-28T20:36:16.475Z,3.60
2023-04-28T20:38:46.409Z,3.90
2023-04-28T20:41:14.562Z,4.07
2023-04-28T20:43:42.901Z,4.30
2023-04-28T20:46:13.842Z,4.53
2023-04-28T20:48:43.255Z,5.03
2023-04-28T20:51:11.695Z,4.97
2023-04-28T20:53:40.010Z,5.10
2023-04-28T20:56:09.872Z,5.07
2023-04-28T20:58:38.058Z,6.10
2023-04-28T21:01:06.255Z,6.07
2023-04-28T21:03:35.877Z,5.90
2023-04-28T21:06:04.225Z,5.60
2023-04-28T21:08:32.537Z,5.50
2023-04-28T21:11:00.929Z,5.00
2023-04-28T21:13:30.673Z,4.83
2023-04-28T21:15:59.347Z,4.60
2023-04-28T21:18:27.954Z,4.50
2023-04-28T21:20:56.721Z,4.80
2023-04-28T21:23:25.557Z,4.37
2023-04-28T21:25:53.692Z,4.23
2023-04-28T21:28:22.088Z,4.63
2023-04-28T21:30:54.752Z,4.17
2023-04-28T21:33:23.790Z,3.93
2023-04-28T21:35:55.042Z,3.93
2023-04-28T21:38:23.293Z,4.33
2023-04-28T21:40:52.865Z,4.00
2023-04-28T21:43:22.500Z,4.40
2023-04-28T21:45:52.456Z,3.90
2023-04-28T21:48:22.613Z,4.47
2023-04-28T21:50:51.094Z,3.80
2023-04-28T21:53:19.270Z,4.10
2023-04-28T21:55:47.574Z,3.73
2023-04-28T21:58:15.979Z,4.30
2023-04-28T22:00:46.677Z,3.90
2023-04-28T22:03:16.021Z,3.60
2023-04-28T22:05:46.463Z,3.80
2023-04-28T22:08:15.823Z,3.80
2023-04-28T22:10:45.803Z,4.40
2023-04-28T22:13:14.437Z,3.90
2023-04-28T22:15:44.287Z,4.20
2023-04-28T22:18:12.960Z,4.03
2023-04-28T22:20:41.569Z,3.97
2023-04-28T22:23:11.164Z,4.03
2023-04-28T22:25:39.767Z,4.10
2023-04-28T22:28:08.196Z,3.93
2023-04-28T22:30:36.434Z,4.00
2023-04-28T22:33:05.245Z,3.77
2023-04-28T22:35:33.371Z,4.10
2023-04-28T22:38:01.926Z,4.50
2023-04-28T22:40:33.579Z,6.03
2023-04-28T22:43:01.934Z,3.87
2023-04-28T22:45:30.118Z,3.60
2023-04-28T22:47:58.461Z,4.03
2023-04-28T22:50:28.880Z,4.00
2023-04-28T22:52:57.272Z,4.37
2023-04-28T22:55:26.933Z,4.00
2023-04-28T22:57:56.529Z,4.00
2023-04-28T23:00:24.752Z,4.20
2023-04-28T23:02:53.475Z,3.67
2023-04-28T23:05:21.678Z,4.07
2023-04-28T23:07:49.747Z,3.87
2023-04-28T23:10:19.187Z,3.97
2023-04-28T23:12:47.287Z,3.97
2023-04-28T23:15:17.303Z,3.47
2023-04-28T23:17:45.568Z,3.90
2023-04-28T23:20:14.373Z,3.90
2023-04-28T23:22:43.003Z,3.97
2023-04-28T23:25:11.713Z,3.87
2023-04-28T23:27:41.445Z,4.07
2023-04-28T23:30:12.156Z,3.90
2023-04-28T23:32:42.574Z,3.90
2023-04-28T23:35:11.327Z,3.50
2023-04-28T23:37:39.381Z,3.83
2023-04-28T23:40:10.029Z,3.80
2023-04-28T23:42:41.617Z,3.77
2023-04-28T23:45:11.362Z,3.20
2023-04-28T23:47:40.592Z,3.27
2023-04-28T23:50:11.983Z,3.20
2023-04-28T23:52:40.560Z,3.10
2023-04-28T23:55:10.614Z,3.27
2023-04-28T23:57:39.163Z,3.70
